Time;durP1;ratioP1;P1;durP2;ratioP2;P2;SDS_P1;SDS_P2;PMS_P1;PMS_P2;Temp;Humidity;BMP_temperature;BMP_pressure;BME280_temperature;BME280_humidity;BME280_pressure;Samples;Min_cycle;Max_cycle;Signal;HPM_P1;HPM_P2
2024/03/02 00:01:53;;;;;;;2.90;1.90;;;;;;;9.19;57.60;95920.44;5014467;28;20038;-79
2024/03/02 00:04:19;;;;;;;2.25;1.88;;;;;;;9.19;57.16;95919.69;5008275;28;20030;-80
2024/03/02 00:06:44;;;;;;;2.72;1.77;;;;;;;9.13;57.48;95920.72;4982106;28;20084;-79
2024/03/02 00:09:12;;;;;;;1.92;1.42;;;;;;;9.12;57.58;95917.34;4993831;28;20041;-79
2024/03/02 00:11:38;;;;;;;1.83;1.30;;;;;;;9.15;57.59;95913.44;5008522;28;20063;-79
2024/03/02 00:14:04;;;;;;;1.63;1.42;;;;;;;9.13;57.40;95920.72;4975762;28;20033;-79
2024/03/02 00:16:31;;;;;;;2.47;1.30;;;;;;;9.08;58.07;95915.56;5008390;28;20116;-79
2024/03/02 00:19:05;;;;;;;2.15;1.65;;;;;;;9.08;57.07;95920.75;5007837;28;20034;-79
2024/03/02 00:21:31;;;;;;;1.50;1.08;;;;;;;9.00;57.48;95917.66;4995808;28;20316;-79
2024/03/02 00:23:56;;;;;;;1.98;1.30;;;;;;;8.99;57.09;95920.53;5012269;28;20037;-79
2024/03/02 00:26:21;;;;;;;1.38;1.17;;;;;;;8.97;57.81;95907.03;5007927;28;20042;-79
2024/03/02 00:28:50;;;;;;;1.60;1.40;;;;;;;8.99;57.89;95908.31;5002703;28;20034;-79
2024/03/02 00:31:16;;;;;;;1.13;1.00;;;;;;;8.94;58.49;95907.56;4991981;28;20036;-79
2024/03/02 00:33:48;;;;;;;1.75;0.95;;;;;;;9.05;58.19;95911.69;5008523;28;20109;-79
2024/03/02 00:36:15;;;;;;;1.60;1.17;;;;;;;8.97;57.24;95913.00;4987395;28;20060;-79
2024/03/02 00:38:47;;;;;;;2.17;1.00;;;;;;;8.91;58.11;95901.09;5007940;28;20444;-79
2024/03/02 00:41:23;;;;;;;1.55;0.88;;;;;;;9.00;58.09;95898.72;4998151;28;20072;-79
2024/03/02 00:44:01;;;;;;;1.30;1.15;;;;;;;9.02;58.02;95908.84;4996539;28;20040;-79
2024/03/02 00:46:29;;;;;;;1.80;1.20;;;;;;;8.87;57.94;95901.88;5007635;28;20041;-79
2024/03/02 00:48:56;;;;;;;1.10;0.90;;;;;;;8.91;58.29;95905.47;4995292;28;20037;-80
2024/03/02 00:51:23;;;;;;;1.83;0.95;;;;;;;8.86;57.43;95908.88;5007545;28;20042;-80
2024/03/02 00:53:50;;;;;;;2.55;1.17;;;;;;;8.84;58.21;95905.75;5007916;28;20068;-80
2024/03/02 00:56:16;;;;;;;1.30;0.95;;;;;;;8.88;57.71;95906.81;5007825;28;20033;-79
2024/03/02 00:58:42;;;;;;;1.50;1.20;;;;;;;8.78;58.25;95902.41;5007340;28;20317;-80
2024/03/02 01:01:07;;;;;;;1.30;1.00;;;;;;;8.84;57.79;95897.97;4996715;28;20037;-79
2024/03/02 01:03:34;;;;;;;1.52;0.90;;;;;;;8.84;57.77;95899.78;5007562;28;20038;-79
2024/03/02 01:05:59;;;;;;;1.85;1.02;;;;;;;8.90;58.04;95903.94;5007633;28;20038;-80
2024/03/02 01:08:25;;;;;;;3.30;1.48;;;;;;;8.90;58.77;95898.75;5006617;28;20394;-79
2024/03/02 01:10:50;;;;;;;1.52;1.02;;;;;;;9.03;57.57;95907.78;4991276;28;20034;-79
2024/03/02 01:13:16;;;;;;;1.52;0.80;;;;;;;9.11;57.79;95910.59;4979598;28;20029;-79
2024/03/02 01:15:41;;;;;;;1.52;1.23;;;;;;;9.02;57.52;95901.81;4977089;28;20038;-79
2024/03/02 01:18:06;;;;;;;1.52;1.17;;;;;;;8.98;57.53;95906.00;4990587;28;20083;-79
2024/03/02 01:20:32;;;;;;;2.22;1.40;;;;;;;8.98;56.70;95903.41;5007646;28;20050;-79
2024/03/02 01:22:57;;;;;;;1.40;1.00;;;;;;;9.03;57.60;95898.19;5007024;28;20353;-79
2024/03/02 01:25:23;;;;;;;1.55;1.20;;;;;;;9.04;56.50;95907.53;5006961;28;20161;-80
2024/03/02 01:27:48;;;;;;;3.22;1.30;;;;;;;9.02;57.25;95903.66;4974456;28;20495;-78
2024/03/02 01:30:13;;;;;;;1.20;1.10;;;;;;;9.05;57.21;95890.91;4990480;28;20060;-79
2024/03/02 01:32:39;;;;;;;1.50;1.25;;;;;;;9.04;56.35;95889.34;5007500;28;20421;-80
2024/03/02 01:35:05;;;;;;;1.30;1.10;;;;;;;9.10;56.33;95888.28;5009483;28;20030;-79
2024/03/02 01:37:30;;;;;;;1.85;1.15;;;;;;;9.06;56.80;95882.06;5009513;28;20108;-79
2024/03/02 01:39:56;;;;;;;2.35;0.90;;;;;;;9.18;56.75;95879.16;5023130;28;20441;-79
2024/03/02 01:42:22;;;;;;;2.10;1.50;;;;;;;9.20;56.00;95879.66;5016273;28;20065;-79
2024/03/02 01:44:47;;;;;;;2.38;1.52;;;;;;;9.17;56.11;95875.03;5008850;28;20022;-79
2024/03/02 01:47:13;;;;;;;1.98;1.35;;;;;;;9.31;55.61;95888.19;4974344;28;20414;-79
2024/03/02 01:49:38;;;;;;;2.67;1.30;;;;;;;9.23;56.47;95881.72;5006510;28;20093;-80
2024/03/02 01:52:04;;;;;;;2.03;1.63;;;;;;;9.35;56.27;95884.00;5006785;28;20030;-79
2024/03/02 01:54:29;;;;;;;1.73;1.10;;;;;;;9.37;55.73;95890.50;4974364;28;20030;-79
2024/03/02 01:56:55;;;;;;;1.90;1.27;;;;;;;9.42;55.28;95884.50;5006989;28;20164;-79
2024/03/02 01:59:20;;;;;;;2.58;1.30;;;;;;;9.33;56.42;95886.88;5005567;28;20041;-79
2024/03/02 02:01:46;;;;;;;1.77;1.48;;;;;;;9.36;56.36;95883.75;5004267;28;20037;-79
2024/03/02 02:04:11;;;;;;;2.10;1.30;;;;;;;9.44;55.64;95877.22;5017053;28;20046;-79
2024/03/02 02:06:36;;;;;;;1.67;1.50;;;;;;;9.50;55.85;95870.94;4990707;28;20108;-79
2024/03/02 02:09:02;;;;;;;1.75;1.20;;;;;;;9.48;55.71;95867.84;5006593;28;20087;-79
2024/03/02 02:11:28;;;;;;;1.30;1.20;;;;;;;9.53;55.37;95864.44;5007739;28;20068;-79
2024/03/02 02:13:55;;;;;;;2.72;1.40;;;;;;;9.59;55.42;95867.78;5005943;28;20030;-78
2024/03/02 02:16:20;;;;;;;2.42;1.60;;;;;;;9.52;55.71;95852.50;4985453;28;20038;-79
2024/03/02 02:18:46;;;;;;;2.17;1.50;;;;;;;9.57;56.15;95855.81;5011635;28;20044;-79
2024/03/02 02:21:11;;;;;;;2.28;1.70;;;;;;;9.54;55.96;95861.56;5010352;28;20417;-79
2024/03/02 02:23:36;;;;;;;2.75;1.70;;;;;;;9.67;55.62;95856.81;4978352;28;20401;-79
2024/03/02 02:26:02;;;;;;;1.83;1.60;;;;;;;9.64;56.17;95854.75;5007161;28;20045;-79
2024/03/02 02:28:29;;;;;;;2.85;1.55;;;;;;;9.64;56.26;95857.34;5004598;28;20579;-84
2024/03/02 02:30:56;;;;;;;1.92;1.40;;;;;;;9.68;55.85;95860.94;4982455;28;20061;-83
2024/03/02 02:33:21;;;;;;;2.80;2.05;;;;;;;9.68;55.53;95860.94;5010010;28;20045;-84
2024/03/02 02:35:47;;;;;;;2.88;1.60;;;;;;;9.64;56.01;95850.31;5009271;28;20033;-83
2024/03/02 02:38:12;;;;;;;2.03;1.80;;;;;;;9.59;55.63;95850.34;4979098;28;20029;-84
2024/03/02 02:40:37;;;;;;;2.72;2.00;;;;;;;9.61;55.60;95850.09;4998398;28;20038;-84
2024/03/02 02:43:03;;;;;;;2.70;1.70;;;;;;;9.53;55.76;95841.81;5019734;28;20041;-84
2024/03/02 02:45:29;;;;;;;2.70;1.60;;;;;;;9.66;55.69;95848.22;4998657;28;20033;-84
2024/03/02 02:47:54;;;;;;;2.38;1.63;;;;;;;9.57;55.75;95845.44;4981878;28;20512;-83
2024/03/02 02:50:20;;;;;;;2.35;1.90;;;;;;;9.54;56.72;95840.78;5012997;28;20037;-83
2024/03/02 02:52:45;;;;;;;2.17;1.77;;;;;;;9.61;56.05;95835.25;5010393;28;20076;-85
2024/03/02 02:55:11;;;;;;;2.88;1.70;;;;;;;9.60;55.99;95838.16;5010305;28;20045;-83
2024/03/02 02:57:39;;;;;;;1.95;1.63;;;;;;;9.59;56.00;95831.41;4996070;28;20528;-84
2024/03/02 03:00:09;;;;;;;2.97;2.05;;;;;;;9.64;56.46;95837.31;4977857;28;20065;-84
2024/03/02 03:02:38;;;;;;;3.42;1.85;;;;;;;9.58;55.77;95833.22;4982121;28;20120;-84
2024/03/02 03:05:08;;;;;;;2.95;1.95;;;;;;;9.54;56.14;95829.59;5006937;28;20470;-84
2024/03/02 03:07:36;;;;;;;2.72;2.00;;;;;;;9.50;56.27;95824.16;5009882;28;20512;-83
2024/03/02 03:10:03;;;;;;;2.85;1.95;;;;;;;9.53;56.33;95825.47;4977754;28;20033;-85
2024/03/02 03:12:29;;;;;;;3.80;2.30;;;;;;;9.60;55.80;95832.97;4977640;28;20022;-84
2024/03/02 03:14:55;;;;;;;2.50;2.08;;;;;;;9.50;56.94;95829.38;5010006;28;20107;-83
2024/03/02 03:17:22;;;;;;;2.85;1.83;;;;;;;9.56;56.71;95836.09;5008521;28;20041;-84
2024/03/02 03:19:47;;;;;;;3.75;2.30;;;;;;;9.53;56.02;95828.84;4993840;28;20137;-83
2024/03/02 03:22:13;;;;;;;2.78;1.90;;;;;;;9.57;56.72;95829.06;4993098;28;20098;-84
2024/03/02 03:24:38;;;;;;;4.25;2.45;;;;;;;9.59;55.77;95834.00;5008941;28;20049;-85
2024/03/02 03:27:04;;;;;;;3.78;2.00;;;;;;;9.54;56.15;95830.41;5009548;28;20034;-84
2024/03/02 03:29:29;;;;;;;2.50;1.90;;;;;;;9.49;55.78;95830.44;4992989;28;20036;-83
2024/03/02 03:31:54;;;;;;;2.35;1.77;;;;;;;9.49;56.58;95827.03;4977015;28;20042;-85
2024/03/02 03:34:20;;;;;;;2.55;1.95;;;;;;;9.44;56.07;95825.28;4977228;28;20034;-82
2024/03/02 03:36:47;;;;;;;2.55;2.05;;;;;;;9.51;56.97;95815.34;5019760;28;20034;-84
2024/03/02 03:39:12;;;;;;;3.15;2.30;;;;;;;9.54;56.71;95830.41;4994091;28;20034;-79
2024/03/02 03:41:37;;;;;;;3.63;2.25;;;;;;;9.55;56.80;95824.13;4988584;28;20397;-78
2024/03/02 03:44:03;;;;;;;3.35;2.50;;;;;;;9.63;56.96;95838.38;5012026;28;20397;-79
2024/03/02 03:46:29;;;;;;;4.88;2.95;;;;;;;9.66;56.46;95829.25;5000095;28;20121;-79
2024/03/02 03:48:55;;;;;;;3.10;2.63;;;;;;;9.68;56.41;95821.97;5008675;28;20361;-78
2024/03/02 03:51:22;;;;;;;3.92;2.92;;;;;;;9.71;56.42;95821.44;4992499;28;20461;-79
2024/03/02 03:53:48;;;;;;;3.03;2.13;;;;;;;9.78;56.80;95819.28;5008803;28;20030;-78
2024/03/02 03:56:13;;;;;;;4.28;3.42;;;;;;;9.81;56.39;95826.56;4976052;28;20036;-79
2024/03/02 03:58:39;;;;;;;4.30;2.70;;;;;;;9.87;56.71;95827.28;4999814;28;20481;-78
2024/03/02 04:01:04;;;;;;;4.18;2.90;;;;;;;9.93;56.24;95828.78;4997325;28;20038;-79
2024/03/02 04:03:30;;;;;;;4.53;2.22;;;;;;;10.01;56.21;95836.03;4992280;28;20034;-79
2024/03/02 04:05:55;;;;;;;4.93;3.03;;;;;;;9.91;56.63;95828.31;5008968;28;20132;-79
2024/03/02 04:08:21;;;;;;;3.30;2.88;;;;;;;9.97;56.26;95836.81;4991665;28;20095;-79
2024/03/02 04:10:46;;;;;;;3.58;2.65;;;;;;;10.00;56.18;95828.50;5008453;28;20065;-79
2024/03/02 04:13:12;;;;;;;3.38;2.78;;;;;;;10.03;56.55;95825.34;5008187;28;20065;-80
2024/03/02 04:15:37;;;;;;;4.30;3.10;;;;;;;10.00;56.53;95836.28;5009829;28;20073;-79
2024/03/02 04:18:03;;;;;;;3.25;2.50;;;;;;;10.01;55.72;95830.06;5007863;28;20112;-79
2024/03/02 04:20:29;;;;;;;4.65;2.67;;;;;;;10.05;56.24;95828.44;4993212;28;20462;-79
2024/03/02 04:22:55;;;;;;;4.18;2.50;;;;;;;10.01;56.38;95830.06;5003938;28;20113;-79
2024/03/02 04:25:20;;;;;;;3.65;2.90;;;;;;;9.98;56.24;95825.38;4999591;28;20129;-79
2024/03/02 04:27:45;;;;;;;4.30;3.00;;;;;;;10.03;56.66;95827.94;4997610;28;20065;-80
2024/03/02 04:30:11;;;;;;;4.07;2.95;;;;;;;9.97;56.78;95826.44;5009913;28;20537;-79
2024/03/02 04:32:37;;;;;;;4.20;2.78;;;;;;;10.05;56.61;95828.44;5008196;28;20084;-79
2024/03/02 04:35:02;;;;;;;3.85;2.97;;;;;;;10.08;56.59;95833.09;5009956;28;20048;-79
2024/03/02 04:37:27;;;;;;;4.80;3.08;;;;;;;10.15;56.28;95828.34;5002507;28;20029;-79
2024/03/02 04:39:53;;;;;;;3.40;2.65;;;;;;;10.15;55.96;95838.00;5007546;28;20456;-79
2024/03/02 04:42:18;;;;;;;3.20;2.40;;;;;;;10.22;55.57;95843.63;5009806;28;20034;-79
2024/03/02 04:44:44;;;;;;;4.13;2.30;;;;;;;10.40;55.46;95839.59;5014891;28;20046;-79
2024/03/02 04:47:09;;;;;;;4.30;2.72;;;;;;;10.40;55.15;95844.78;5008407;28;20636;-79
2024/03/02 04:49:35;;;;;;;4.95;2.75;;;;;;;10.36;55.73;95844.56;5014623;28;20392;-79
2024/03/02 04:52:00;;;;;;;4.05;2.80;;;;;;;10.39;55.62;95840.66;5007612;28;20034;-79
2024/03/02 04:54:25;;;;;;;4.18;2.53;;;;;;;10.48;55.05;95837.16;4991364;28;20144;-79
2024/03/02 04:56:51;;;;;;;4.22;2.60;;;;;;;10.45;54.63;95845.53;5011721;28;20421;-79
2024/03/02 04:59:17;;;;;;;5.75;2.78;;;;;;;10.39;54.62;95840.66;4992046;28;20540;-79
2024/03/02 05:01:43;;;;;;;3.70;2.70;;;;;;;10.36;55.20;95852.38;5008433;28;20042;-79
2024/03/02 05:04:11;;;;;;;2.83;2.10;;;;;;;10.33;55.60;95844.34;4997247;28;20029;-80
2024/03/02 05:06:40;;;;;;;3.60;2.40;;;;;;;10.47;54.94;95850.47;4991573;28;20034;-79
2024/03/02 05:09:06;;;;;;;4.60;2.45;;;;;;;10.55;54.35;95851.66;5006703;28;20034;-80
2024/03/02 05:14:03;;;;;;;3.35;2.30;;;;;;;10.59;54.55;95863.88;5007218;28;20045;-79
2024/03/02 05:16:28;;;;;;;3.65;2.17;;;;;;;10.53;55.31;95864.19;4990893;28;20061;-79
2024/03/02 05:18:54;;;;;;;3.80;2.22;;;;;;;10.65;54.38;95861.97;5007137;28;20034;-79
2024/03/02 05:21:19;;;;;;;2.75;2.20;;;;;;;10.74;54.12;95867.34;4974275;28;20113;-80
2024/03/02 05:23:45;;;;;;;3.42;2.25;;;;;;;10.70;54.22;95868.97;5007464;28;20045;-79
2024/03/02 05:26:12;;;;;;;3.75;2.03;;;;;;;10.73;54.27;95869.19;5007220;28;20042;-79
2024/03/02 05:28:38;;;;;;;3.67;2.30;;;;;;;10.64;54.58;95874.22;4974726;28;20405;-79
2024/03/02 05:31:04;;;;;;;2.85;2.08;;;;;;;10.75;53.27;95871.50;4990757;28;20033;-79
2024/03/02 05:33:31;;;;;;;2.50;2.00;;;;;;;10.80;53.73;95880.03;4974598;28;20041;-79
2024/03/02 05:35:57;;;;;;;3.53;2.10;;;;;;;10.89;53.33;95875.00;5001718;28;20714;-79
2024/03/02 05:38:22;;;;;;;3.67;1.77;;;;;;;10.74;53.94;95873.31;4974017;28;20038;-79
2024/03/02 05:40:47;;;;;;;4.32;3.00;;;;;;;10.85;53.01;95871.41;4995178;28;20083;-84
2024/03/02 05:43:13;;;;;;;2.88;2.17;;;;;;;10.89;53.22;95882.81;4974538;28;20030;-84
2024/03/02 05:45:39;;;;;;;3.13;2.08;;;;;;;10.88;53.26;95878.63;4996047;28;20282;-85
2024/03/02 05:48:07;;;;;;;3.28;2.08;;;;;;;10.96;53.18;95885.06;5009161;28;20044;-84
2024/03/02 05:50:32;;;;;;;3.30;1.98;;;;;;;10.94;53.27;95872.31;4975279;28;20030;-85
2024/03/02 05:52:58;;;;;;;2.90;2.10;;;;;;;10.97;52.99;95878.81;5003496;28;20029;-82
2024/03/02 05:55:24;;;;;;;3.60;2.08;;;;;;;10.98;53.11;95872.53;4983014;28;20030;-84
2024/03/02 05:58:11;;;;;;;2.83;2.00;;;;;;;11.02;52.81;95876.94;4994196;28;20037;-84
2024/03/02 06:00:35;;;;;;;;;;;;;;;11.18;52.58;95879.34;5007784;28;20517;-80
2024/03/02 06:03:00;;;;;;;2.55;1.90;;;;;;;11.06;52.38;95872.69;4990382;28;20271;-79
2024/03/02 06:05:26;;;;;;;3.15;2.10;;;;;;;11.00;53.18;95888.66;5006942;28;20108;-79
2024/03/02 06:07:51;;;;;;;3.33;1.80;;;;;;;10.94;52.91;95881.97;5004910;28;20041;-80
2024/03/02 06:10:17;;;;;;;3.00;2.00;;;;;;;10.94;52.70;95874.94;5016045;28;20030;-79
2024/03/02 06:12:43;;;;;;;3.20;2.10;;;;;;;11.05;52.34;95886.00;4985010;28;20440;-80
2024/03/02 06:15:08;;;;;;;3.25;1.73;;;;;;;11.06;52.88;95883.13;4976240;28;20042;-80
2024/03/02 06:17:37;;;;;;;2.53;1.80;;;;;;;11.08;52.81;95884.69;4974259;28;20088;-79
2024/03/02 06:20:03;;;;;;;2.33;1.88;;;;;;;11.11;52.26;95891.94;5006485;28;20484;-79
2024/03/02 06:22:28;;;;;;;2.97;2.10;;;;;;;11.01;52.78;95885.78;4997963;28;20109;-80
2024/03/02 06:24:53;;;;;;;2.58;1.90;;;;;;;11.04;52.26;95887.84;5006597;28;20330;-80
2024/03/02 06:27:19;;;;;;;2.95;1.88;;;;;;;11.10;52.17;95896.34;5005353;28;20037;-79
2024/03/02 06:29:45;;;;;;;3.13;2.03;;;;;;;11.04;52.43;95892.28;5001531;28;20034;-79
2024/03/02 06:32:10;;;;;;;2.30;1.70;;;;;;;11.11;52.22;95891.94;5006486;28;20099;-79
2024/03/02 06:34:35;;;;;;;2.65;1.80;;;;;;;11.05;52.72;95894.59;5006823;28;20482;-79
2024/03/02 06:37:01;;;;;;;3.45;2.13;;;;;;;11.14;52.83;95904.38;4983124;28;20048;-80
2024/03/02 06:39:26;;;;;;;3.85;2.05;;;;;;;11.09;52.70;95904.44;5006961;28;20033;-80
2024/03/02 06:41:52;;;;;;;3.55;1.92;;;;;;;11.11;52.01;95899.75;5018680;28;20038;-79
2024/03/02 06:44:17;;;;;;;2.60;2.00;;;;;;;11.17;52.16;95914.25;4990882;28;20034;-79
2024/03/02 06:46:43;;;;;;;3.00;2.22;;;;;;;11.29;51.52;95914.63;5006549;28;20034;-79
2024/03/02 06:49:10;;;;;;;2.38;1.60;;;;;;;11.28;51.76;95915.69;5006993;28;20069;-79
2024/03/02 06:51:35;;;;;;;2.42;1.90;;;;;;;11.19;52.29;95915.53;4992364;28;20030;-83
2024/03/02 06:54:00;;;;;;;2.63;1.70;;;;;;;11.29;52.04;95919.06;4990607;28;20157;-81
2024/03/02 06:56:26;;;;;;;2.35;1.67;;;;;;;11.25;52.41;95921.47;4991024;28;20045;-84
2024/03/02 06:58:52;;;;;;;3.58;2.10;;;;;;;11.28;52.15;95918.31;4992497;28;20125;-84
2024/03/02 07:01:17;;;;;;;2.17;1.63;;;;;;;11.39;51.93;95922.31;4980270;28;20033;-86
2024/03/02 07:03:43;;;;;;;2.72;1.90;;;;;;;11.36;51.71;95933.31;4996337;28;20487;-84
2024/03/02 07:06:09;;;;;;;2.63;1.67;;;;;;;11.39;51.75;95927.53;4993655;28;20521;-85
2024/03/02 07:08:34;;;;;;;2.85;1.88;;;;;;;11.41;51.71;95924.66;5010064;28;20116;-84
2024/03/02 07:11:00;;;;;;;2.20;2.00;;;;;;;11.40;52.30;95934.31;4993674;28;20033;-85
2024/03/02 07:13:26;;;;;;;2.83;1.63;;;;;;;11.42;51.65;95932.19;5009893;28;20057;-85
2024/03/02 07:18:33;;;;;;;2.95;1.80;;;;;;;11.50;51.39;95936.00;4994782;28;20069;-84
2024/03/02 07:21:00;;;;;;;2.92;1.60;;;;;;;11.43;51.60;95932.97;4990067;28;20497;-84
2024/03/02 07:23:30;;;;;;;2.35;1.75;;;;;;;11.41;51.90;95933.25;5018314;28;20038;-86
2024/03/02 07:25:56;;;;;;;2.45;1.65;;;;;;;11.41;51.60;95941.06;5009075;28;20397;-83
2024/03/02 07:28:22;;;;;;;3.45;1.75;;;;;;;11.53;51.94;95929.44;5001200;28;20116;-84
2024/03/02 07:31:00;;;;;;;2.30;1.60;;;;;;;11.63;52.43;95944.97;4977196;28;20104;-84
2024/03/02 07:33:26;;;;;;;2.45;1.55;;;;;;;11.56;52.10;95940.09;4993686;28;20037;-85
2024/03/02 07:35:52;;;;;;;2.10;1.70;;;;;;;11.62;51.83;95938.22;5002386;28;20032;-86
2024/03/02 07:38:17;;;;;;;2.95;1.88;;;;;;;11.62;52.89;95941.59;4993346;28;20397;-85
2024/03/02 07:40:42;;;;;;;2.75;1.80;;;;;;;11.68;52.10;95933.69;5013824;28;20285;-84
2024/03/02 07:43:08;;;;;;;2.33;1.63;;;;;;;11.62;51.18;95933.00;5009775;28;20120;-84
2024/03/02 07:45:35;;;;;;;2.53;1.55;;;;;;;11.65;52.08;95929.81;4993086;28;20057;-84
2024/03/02 07:48:01;;;;;;;2.75;1.52;;;;;;;11.70;51.81;95931.59;4976496;28;20080;-83
2024/03/02 07:50:27;;;;;;;2.53;1.85;;;;;;;11.68;52.69;95926.63;4993245;28;20505;-84
2024/03/02 07:52:52;;;;;;;3.25;1.60;;;;;;;11.76;50.54;95935.69;5016457;28;20034;-84
2024/03/02 07:55:18;;;;;;;1.33;1.23;;;;;;;11.81;51.38;95927.78;5001764;28;20040;-85
2024/03/02 07:57:43;;;;;;;1.90;1.70;;;;;;;11.87;50.99;95931.09;4992587;28;20064;-85
2024/03/02 08:00:09;;;;;;;2.08;1.50;;;;;;;11.98;50.90;95937.75;5009188;28;20058;-85
2024/03/02 08:02:35;;;;;;;1.95;1.58;;;;;;;12.06;51.41;95931.88;5009548;28;20049;-84
2024/03/02 08:05:01;;;;;;;3.60;1.58;;;;;;;12.01;51.11;95939.00;5003674;28;20034;-84
2024/03/02 08:07:26;;;;;;;2.45;1.30;;;;;;;12.13;50.52;95932.31;4992224;28;20057;-85
2024/03/02 08:09:52;;;;;;;2.03;1.63;;;;;;;12.22;50.25;95942.06;4992138;28;20520;-84
2024/03/02 08:12:19;;;;;;;1.60;1.30;;;;;;;12.43;50.56;95945.16;5008518;28;20285;-85
2024/03/02 08:14:45;;;;;;;1.20;0.90;;;;;;;12.71;49.44;95938.13;5004096;28;20126;-85
2024/03/02 08:17:11;;;;;;;1.73;1.25;;;;;;;12.73;48.12;95944.63;4981728;28;20413;-84
2024/03/02 08:19:37;;;;;;;1.30;1.17;;;;;;;12.75;49.10;95946.97;4976336;28;20069;-85
2024/03/02 08:22:03;;;;;;;1.73;1.20;;;;;;;12.81;48.43;95950.25;4983845;28;20087;-80
2024/03/02 08:24:30;;;;;;;2.47;1.30;;;;;;;12.80;48.16;95941.66;5008589;28;20077;-79
2024/03/02 08:26:56;;;;;;;2.67;1.23;;;;;;;12.69;49.31;95945.50;5007964;28;20153;-79
2024/03/02 08:29:21;;;;;;;2.20;1.70;;;;;;;12.69;49.25;95938.44;4991512;28;20497;-79
2024/03/02 08:31:46;;;;;;;1.40;1.08;;;;;;;12.73;48.76;95942.03;5008023;28;20153;-79
2024/03/02 08:34:12;;;;;;;1.55;1.23;;;;;;;12.66;49.80;95939.03;5007874;28;20029;-79
2024/03/02 08:36:38;;;;;;;1.63;1.10;;;;;;;12.70;49.94;95936.63;5001669;28;20033;-79
2024/03/02 08:39:07;;;;;;;1.73;1.27;;;;;;;12.71;49.10;95930.31;5004907;28;20605;-79
2024/03/02 08:41:32;;;;;;;1.27;1.00;;;;;;;12.78;49.65;95943.75;4985435;28;20113;-79
2024/03/02 08:43:58;;;;;;;3.25;1.33;;;;;;;12.84;48.20;95944.47;4978788;28;20117;-80
2024/03/02 08:46:23;;;;;;;1.70;1.20;;;;;;;12.76;48.74;95940.66;5007794;28;20470;-79
2024/03/02 08:48:48;;;;;;;1.23;1.13;;;;;;;12.82;48.92;95936.16;4991105;28;20030;-79
2024/03/02 08:51:14;;;;;;;1.60;1.38;;;;;;;12.83;49.00;95933.22;5009012;28;20048;-79
2024/03/02 08:53:39;;;;;;;1.27;1.00;;;;;;;13.01;48.52;95947.28;4990928;28;20034;-79
2024/03/02 08:56:05;;;;;;;1.25;0.47;;;;;;;13.00;49.04;95937.13;4991259;28;20037;-79
2024/03/02 08:58:31;;;;;;;1.25;0.90;;;;;;;13.02;48.51;95948.03;4999929;28;20041;-79
2024/03/02 09:00:56;;;;;;;1.48;0.98;;;;;;;13.15;49.35;95936.81;4991261;28;20033;-79
2024/03/02 09:03:22;;;;;;;1.02;0.77;;;;;;;13.19;48.53;95937.78;4974791;28;20084;-79
2024/03/02 09:05:47;;;;;;;1.00;0.70;;;;;;;13.21;48.32;95934.88;4991200;28;20423;-79
2024/03/02 09:08:12;;;;;;;1.52;1.00;;;;;;;13.37;48.47;95932.78;5006895;28;20045;-79
2024/03/02 09:10:39;;;;;;;2.35;1.40;;;;;;;13.52;47.70;95939.53;5001637;28;20070;-80
2024/03/02 09:13:04;;;;;;;1.08;0.85;;;;;;;13.48;47.38;95944.56;5008612;28;20038;-80
2024/03/02 09:15:30;;;;;;;1.48;0.95;;;;;;;13.49;47.46;95940.91;4991066;28;20045;-79
2024/03/02 09:17:55;;;;;;;1.40;1.10;;;;;;;13.58;47.91;95944.34;5007147;28;20410;-80
2024/03/02 09:20:21;;;;;;;1.20;0.80;;;;;;;13.60;46.29;95936.22;4981946;28;20466;-79
2024/03/02 09:22:48;;;;;;;1.95;1.00;;;;;;;13.56;46.74;95928.19;4990210;28;20028;-80
2024/03/02 09:25:14;;;;;;;1.13;0.82;;;;;;;13.67;46.99;95942.63;5005365;28;20037;-79
2024/03/02 09:27:39;;;;;;;1.02;0.80;;;;;;;13.66;46.36;95935.81;4990879;28;20064;-79
2024/03/02 09:30:08;;;;;;;2.28;0.90;;;;;;;13.86;46.60;95937.22;4974205;28;20124;-79
2024/03/02 09:32:33;;;;;;;1.25;0.80;;;;;;;13.76;46.56;95936.66;4995717;28;20120;-82
2024/03/02 09:34:58;;;;;;;1.25;0.80;;;;;;;13.98;45.66;95936.72;4980100;28;20112;-84
2024/03/02 09:37:24;;;;;;;2.03;1.20;;;;;;;13.91;46.83;95932.94;4990719;28;20038;-84
2024/03/02 09:39:49;;;;;;;1.27;0.80;;;;;;;13.86;47.13;95934.63;4994077;28;20026;-83
2024/03/02 09:42:15;;;;;;;1.05;0.82;;;;;;;13.88;46.58;95926.47;4983583;28;20397;-84
2024/03/02 09:44:40;;;;;;;1.13;0.73;;;;;;;13.93;45.37;95923.75;5012816;28;20041;-84
2024/03/02 09:47:07;;;;;;;1.65;0.75;;;;;;;13.90;45.33;95911.25;4993406;28;20036;-83
2024/03/02 09:49:32;;;;;;;1.20;0.85;;;;;;;13.89;46.17;95912.31;5000262;28;20029;-84
2024/03/02 09:51:57;;;;;;;1.42;0.98;;;;;;;13.94;45.20;95914.81;4994853;28;20034;-84
2024/03/02 09:54:23;;;;;;;1.20;0.80;;;;;;;13.94;46.13;95920.03;5006986;28;20050;-84
2024/03/02 09:56:49;;;;;;;3.00;1.48;;;;;;;14.08;46.35;95917.38;4990849;28;20038;-85
2024/03/02 09:59:17;;;;;;;1.48;0.80;;;;;;;14.19;44.52;95913.44;5006963;28;20502;-84
2024/03/02 10:01:59;;;;;;;1.35;0.90;;;;;;;14.34;45.63;95922.78;5011036;28;20133;-85
2024/03/02 10:04:26;;;;;;;1.10;0.80;;;;;;;14.24;45.10;95918.56;5007011;28;20124;-83
2024/03/02 10:06:52;;;;;;;1.13;0.70;;;;;;;14.38;45.00;95918.50;5006919;28;20033;-85
2024/03/02 10:09:28;;;;;;;1.52;0.80;;;;;;;14.49;44.61;95916.38;5006794;28;20038;-84
2024/03/02 10:12:03;;;;;;;1.65;0.80;;;;;;;14.58;45.10;95916.44;4991098;28;20026;-80
2024/03/02 10:14:29;;;;;;;;;;;;;;;14.69;43.72;95920.38;4990819;28;20042;-79
2024/03/02 10:17:02;;;;;;;1.10;0.80;;;;;;;14.51;42.09;95916.09;5006412;28;20130;-79
2024/03/02 10:19:32;;;;;;;0.60;0.40;;;;;;;14.54;44.20;95916.25;4990367;28;20034;-79
2024/03/02 10:21:58;;;;;;;1.80;0.93;;;;;;;14.59;44.62;95910.16;5003306;28;20426;-80
2024/03/02 10:24:23;;;;;;;0.60;0.60;;;;;;;14.66;44.15;95912.34;4990176;28;20128;-79
2024/03/02 10:26:50;;;;;;;0.70;0.50;;;;;;;14.76;44.18;95918.09;5006211;28;20030;-79
2024/03/02 10:29:15;;;;;;;1.25;0.80;;;;;;;14.91;43.51;95913.53;5006541;28;20041;-79
2024/03/02 10:31:43;;;;;;;1.08;0.57;;;;;;;14.96;42.97;95908.94;5000409;28;20030;-79
2024/03/02 10:34:10;;;;;;;2.17;0.60;;;;;;;15.00;42.97;95911.72;5012589;28;20490;-84
2024/03/02 10:36:37;;;;;;;1.00;0.55;;;;;;;15.16;42.87;95915.47;4979615;28;20497;-84
2024/03/02 10:39:06;;;;;;;0.70;0.45;;;;;;;15.16;43.03;95919.94;5010706;28;20045;-83
2024/03/02 10:41:36;;;;;;;0.93;0.57;;;;;;;15.11;43.80;95910.38;4983323;28;20482;-83
2024/03/02 10:44:03;;;;;;;0.70;0.70;;;;;;;15.24;43.65;95900.06;4994338;28;20042;-83
2024/03/02 10:46:30;;;;;;;0.60;0.50;;;;;;;15.31;43.95;95895.13;5001201;28;20112;-83
2024/03/02 10:48:59;;;;;;;1.02;0.52;;;;;;;15.54;42.70;95896.56;5010488;28;20026;-85
2024/03/02 10:51:31;;;;;;;0.60;0.60;;;;;;;15.64;42.13;95899.97;5010920;28;20032;-84
2024/03/02 10:54:01;;;;;;;1.00;0.70;;;;;;;15.61;43.00;95898.75;4993957;28;20243;-83
2024/03/02 10:56:34;;;;;;;1.77;0.55;;;;;;;15.74;41.71;95895.16;5001926;28;20532;-84
2024/03/02 10:59:39;;;;;;;0.45;0.40;;;;;;;15.95;42.02;95891.19;5010526;28;20502;-83
2024/03/02 11:02:06;;;;;;;1.20;0.50;;;;;;;16.04;42.38;95890.09;5010018;28;20042;-84
2024/03/02 11:04:34;;;;;;;0.80;0.50;;;;;;;16.18;42.71;95889.94;4978155;28;20072;-84
2024/03/02 11:07:05;;;;;;;0.80;0.60;;;;;;;16.57;41.16;95890.78;5009634;28;20092;-84
2024/03/02 11:09:33;;;;;;;0.80;0.60;;;;;;;16.75;39.24;95885.44;4993941;28;20037;-83
2024/03/02 11:12:05;;;;;;;2.10;0.70;;;;;;;16.75;40.63;95885.44;5015276;28;20304;-84
2024/03/02 11:14:34;;;;;;;1.02;0.55;;;;;;;16.72;40.82;95876.31;5010297;28;20414;-84
2024/03/02 11:17:02;;;;;;;0.50;0.50;;;;;;;16.84;41.92;95875.69;5017627;28;20448;-84
2024/03/02 11:19:28;;;;;;;0.35;0.35;;;;;;;17.09;39.53;95868.00;4977425;28;20037;-84
2024/03/02 11:21:53;;;;;;;0.95;0.52;;;;;;;17.32;39.95;95865.84;5009716;28;20033;-84
2024/03/02 11:24:23;;;;;;;0.40;0.30;;;;;;;17.59;39.90;95867.97;4977325;28;20034;-84
2024/03/02 11:26:52;;;;;;;0.50;0.50;;;;;;;17.87;38.63;95866.69;5009858;28;20505;-84
2024/03/02 11:29:36;;;;;;;0.82;0.65;;;;;;;17.65;38.11;95868.56;5009628;28;20546;-85
2024/03/02 11:32:23;;;;;;;1.45;0.60;;;;;;;17.55;38.44;95858.41;5009672;28;20398;-84
2024/03/02 11:34:50;;;;;;;0.85;0.40;;;;;;;17.58;37.94;95858.53;5010087;28;20083;-84
2024/03/02 11:37:17;;;;;;;1.27;0.50;;;;;;;17.54;39.53;95856.88;4980078;28;20124;-84
2024/03/02 11:39:44;;;;;;;0.73;0.60;;;;;;;17.32;37.82;95850.81;4984811;28;20095;-83